CheckWX is a tool to help pilots better visualize weather data.  It is not intended as a substitute for an official pre-flight weather briefing.

18:40:15 UTC

CYGW METAR
Kuujjuarapik Airport
Kuujjuarapik, Canada
Current

40 mins ago

CYGW 261800Z AUTO 25006KT 9SM CLR M16/M20 A3006 RMK SLP183
Observed
Mar-26 @ 18:00 UTC
Wind
  • 250° at 6 KTS
Visibility
9 SM
Flight Rules
VFR
Cloud Levels
  • Clear skies
Temperature
-16°C / 3°F
Dewpoint
-20°C / -4°F
Humidity
72%
Altimeter
30.06" Hg
Pressure
1018.3 hPa
Previous

1 hour ago

CYGW 261725Z AUTO 24009KT 9SM SCT014 M17/M20 A3006 RMK SLP182
Observed
Mar-26 @ 17:25 UTC
Wind
  • 240° at 9 KTS
Visibility
9 SM
Flight Rules
VFR
Cloud Levels
  • Scattered at 1,400' AGL
Temperature
-17°C / 1°F
Dewpoint
-20°C / -4°F
Humidity
78%
Altimeter
30.06" Hg
Pressure
1018.2 hPa
Previous

2 hours ago

CYGW 261700Z AUTO 24010KT 9SM BKN014 M17/M20 A3005 RMK SLP180
Observed
Mar-26 @ 17:00 UTC
Wind
  • 240° at 10 KTS
Visibility
9 SM
Flight Rules
MVFR
Cloud Levels
  • Broken at 1,400' AGL
Temperature
-17°C / 1°F
Dewpoint
-20°C / -4°F
Humidity
78%
Altimeter
30.05" Hg
Pressure
1018 hPa